createdAt,value
2019-02-16T00:01:19.270Z,-1.40
2019-02-16T00:04:07.238Z,-1.40
2019-02-16T00:06:56.502Z,-1.50
2019-02-16T00:09:44.959Z,-1.50
2019-02-16T00:12:36.749Z,-1.50
2019-02-16T00:15:30.999Z,-1.50
2019-02-16T00:18:19.705Z,-1.50
2019-02-16T00:21:08.651Z,-1.50
2019-02-16T00:24:03.755Z,-1.70
2019-02-16T00:26:53.559Z,-1.70
2019-02-16T00:29:41.502Z,-1.70
2019-02-16T00:32:29.534Z,-1.70
2019-02-16T00:35:17.348Z,-1.70
2019-02-16T00:38:07.396Z,-1.70
2019-02-16T00:40:55.426Z,-1.70
2019-02-16T00:43:43.017Z,-1.70
2019-02-16T00:46:30.981Z,-1.80
2019-02-16T00:49:19.128Z,-1.90
2019-02-16T00:52:06.908Z,-1.90
2019-02-16T00:54:55.260Z,-1.90
2019-02-16T00:57:43.557Z,-1.90
2019-02-16T01:00:31.865Z,-1.90
2019-02-16T01:03:19.394Z,-2.00
2019-02-16T01:06:07.105Z,-2.00
2019-02-16T01:08:54.960Z,-2.10
2019-02-16T01:11:43.377Z,-2.10
2019-02-16T01:14:31.111Z,-2.00
2019-02-16T01:17:18.994Z,-2.00
2019-02-16T01:20:09.385Z,-2.00
2019-02-16T01:22:57.887Z,-2.10
2019-02-16T01:25:45.870Z,-2.10
2019-02-16T01:28:34.060Z,-2.10
2019-02-16T01:31:22.130Z,-2.10
2019-02-16T01:34:10.131Z,-2.20
2019-02-16T01:36:58.109Z,-2.20
2019-02-16T01:39:45.826Z,-2.20
2019-02-16T01:42:33.682Z,-2.20
2019-02-16T01:45:21.615Z,-2.20
2019-02-16T01:48:09.692Z,-2.20
2019-02-16T01:50:57.466Z,-2.30
2019-02-16T01:53:44.979Z,-2.40
2019-02-16T01:56:32.699Z,-2.50
2019-02-16T01:59:20.049Z,-2.40
2019-02-16T02:02:08.133Z,-2.50
2019-02-16T02:04:56.133Z,-2.50
2019-02-16T02:07:44.271Z,-2.50
2019-02-16T02:10:33.002Z,-2.50
2019-02-16T02:13:25.332Z,-2.40
2019-02-16T02:16:13.097Z,-2.40
2019-02-16T02:19:01.170Z,-2.40
2019-02-16T02:21:49.138Z,-2.40
2019-02-16T02:24:37.626Z,-2.40
2019-02-16T02:27:25.274Z,-2.50
2019-02-16T02:30:13.002Z,-2.50
2019-02-16T02:33:00.937Z,-2.50
2019-02-16T02:35:48.972Z,-2.60
2019-02-16T02:38:37.105Z,-2.60
2019-02-16T02:41:27.216Z,-2.70
2019-02-16T02:44:15.256Z,-2.90
2019-02-16T02:47:04.294Z,-2.90
2019-02-16T02:49:52.447Z,-2.80
2019-02-16T02:52:39.874Z,-2.80
2019-02-16T02:55:28.113Z,-2.70
2019-02-16T02:58:16.344Z,-2.70
2019-02-16T03:01:04.514Z,-2.70
2019-02-16T03:03:52.464Z,-2.80
2019-02-16T03:06:40.712Z,-2.80
2019-02-16T03:09:28.729Z,-2.80
2019-02-16T03:12:16.016Z,-2.80
2019-02-16T03:15:03.687Z,-2.80
2019-02-16T03:17:51.520Z,-2.90
2019-02-16T03:20:50.144Z,-2.90
2019-02-16T03:23:40.812Z,-3.00
2019-02-16T03:27:01.130Z,-3.10
2019-02-16T03:30:26.157Z,-3.30
2019-02-16T03:33:54.028Z,-3.30
2019-02-16T03:37:07.296Z,-3.20
2019-02-16T03:39:55.096Z,-3.20
2019-02-16T03:42:42.846Z,-3.30
2019-02-16T03:45:30.960Z,-3.30
2019-02-16T03:48:19.168Z,-3.30
2019-02-16T03:51:07.425Z,-3.20
2019-02-16T03:53:55.307Z,-3.20
2019-02-16T03:56:42.907Z,-3.20
2019-02-16T03:59:30.644Z,-3.20
2019-02-16T04:02:18.652Z,-3.20
2019-02-16T04:05:06.702Z,-3.20
2019-02-16T04:07:55.772Z,-3.20
2019-02-16T04:10:43.285Z,-3.20
2019-02-16T04:13:31.983Z,-3.20
2019-02-16T04:16:20.229Z,-3.20
2019-02-16T04:19:08.076Z,-3.30
2019-02-16T04:21:56.399Z,-3.30
2019-02-16T04:24:44.345Z,-3.30
2019-02-16T04:27:32.210Z,-3.30
2019-02-16T04:30:20.272Z,-3.30
2019-02-16T04:33:11.598Z,-3.30
2019-02-16T04:36:03.031Z,-3.30
2019-02-16T04:38:51.085Z,-3.40
2019-02-16T04:41:40.236Z,-3.50
2019-02-16T04:44:28.189Z,-3.50
2019-02-16T04:47:15.694Z,-3.50
2019-02-16T04:50:03.643Z,-3.50
2019-02-16T04:52:51.795Z,-3.50
2019-02-16T04:55:40.002Z,-3.60
2019-02-16T04:58:28.204Z,-3.50
2019-02-16T05:01:16.228Z,-3.50
2019-02-16T05:04:04.392Z,-3.50
2019-02-16T05:06:52.099Z,-3.50
2019-02-16T05:09:40.072Z,-3.50
2019-02-16T05:12:27.957Z,-3.50
2019-02-16T05:15:15.781Z,-3.50
2019-02-16T05:18:03.598Z,-3.60
2019-02-16T05:20:51.862Z,-3.60
2019-02-16T05:23:40.057Z,-3.60
2019-02-16T05:26:28.396Z,-3.70
2019-02-16T05:29:16.674Z,-3.70
2019-02-16T05:32:04.817Z,-3.70
2019-02-16T05:34:53.082Z,-3.70
2019-02-16T05:37:40.960Z,-3.70
2019-02-16T05:40:29.031Z,-3.80
2019-02-16T05:43:17.236Z,-3.80
2019-02-16T05:46:08.155Z,-3.80
2019-02-16T05:48:55.942Z,-3.80
2019-02-16T05:51:43.467Z,-3.90
2019-02-16T05:54:31.718Z,-3.90
2019-02-16T05:57:19.519Z,-3.90
2019-02-16T06:00:09.819Z,-3.90
2019-02-16T06:02:57.993Z,-3.90
2019-02-16T06:05:46.124Z,-3.90
2019-02-16T06:08:34.103Z,-4.00
2019-02-16T06:11:21.890Z,-3.90
2019-02-16T06:14:09.340Z,-4.00
2019-02-16T06:16:57.818Z,-4.00
2019-02-16T06:19:46.072Z,-4.00
2019-02-16T06:22:34.379Z,-4.00
2019-02-16T06:25:22.816Z,-4.00
2019-02-16T06:28:17.103Z,-4.00
2019-02-16T06:31:05.233Z,-4.00
2019-02-16T06:33:53.348Z,-4.00
2019-02-16T06:36:42.466Z,-4.00
2019-02-16T06:39:30.500Z,-4.00
2019-02-16T06:42:18.561Z,-4.00
2019-02-16T06:45:06.743Z,-4.00
2019-02-16T06:47:56.920Z,-4.00
2019-02-16T06:50:45.297Z,-4.00
2019-02-16T06:53:35.808Z,-4.00
2019-02-16T06:56:30.990Z,-4.00
2019-02-16T06:59:18.767Z,-3.90
2019-02-16T07:02:06.759Z,-3.90
2019-02-16T07:04:54.897Z,-3.90
2019-02-16T07:07:43.413Z,-3.90
2019-02-16T07:10:31.443Z,-3.90
2019-02-16T07:13:19.359Z,-3.80
2019-02-16T07:16:41.508Z,-3.70
2019-02-16T07:19:47.952Z,-3.70
2019-02-16T07:22:36.029Z,-3.60
2019-02-16T07:25:24.590Z,-3.40
2019-02-16T07:28:12.648Z,-3.30
2019-02-16T07:31:01.145Z,-3.20
2019-02-16T07:33:49.239Z,-3.00
2019-02-16T07:36:37.341Z,-2.90
2019-02-16T07:39:25.648Z,-2.90
2019-02-16T07:42:13.857Z,-2.80
2019-02-16T07:45:16.620Z,-2.70
2019-02-16T07:48:29.250Z,-2.50
2019-02-16T07:51:22.847Z,-2.30
2019-02-16T07:54:29.800Z,-2.20
2019-02-16T07:57:25.252Z,-2.00
2019-02-16T08:00:44.315Z,-1.80
2019-02-16T08:03:51.892Z,-1.70
2019-02-16T08:06:57.785Z,-1.50
2019-02-16T08:10:08.030Z,-1.30
2019-02-16T08:13:03.953Z,-1.10
2019-02-16T08:16:06.846Z,-0.90
2019-02-16T08:19:08.369Z,-0.70
2019-02-16T08:22:18.402Z,-0.50
2019-02-16T08:25:23.864Z,-0.30
2019-02-16T08:28:19.269Z,0.00
2019-02-16T08:31:20.981Z,0.30
2019-02-16T08:34:30.522Z,0.50
2019-02-16T08:37:33.819Z,0.70
2019-02-16T08:40:35.279Z,0.90
2019-02-16T08:43:41.451Z,1.20
2019-02-16T08:46:47.754Z,1.40
2019-02-16T08:49:54.790Z,1.70
2019-02-16T08:53:10.656Z,1.90
2019-02-16T08:56:29.983Z,2.20
2019-02-16T08:59:35.664Z,2.50
2019-02-16T09:02:31.134Z,2.70
2019-02-16T09:05:26.334Z,2.80
2019-02-16T09:08:25.367Z,3.00
2019-02-16T09:11:32.758Z,3.20
2019-02-16T09:14:52.324Z,3.40
2019-02-16T09:17:59.037Z,3.70
2019-02-16T09:21:14.164Z,3.90
2019-02-16T09:24:00.285Z,4.10
2019-02-16T09:27:16.489Z,4.30
2019-02-16T09:30:24.427Z,4.50
2019-02-16T09:33:40.914Z,4.70
2019-02-16T09:36:37.703Z,4.80
2019-02-16T09:39:44.396Z,5.00
2019-02-16T09:42:49.960Z,5.20
2019-02-16T09:45:53.754Z,5.40
2019-02-16T09:49:03.245Z,5.60
2019-02-16T09:52:13.255Z,5.70
2019-02-16T09:55:16.039Z,5.90
2019-02-16T09:58:21.976Z,6.10
2019-02-16T10:01:20.007Z,6.30
2019-02-16T10:04:18.031Z,6.40
2019-02-16T10:07:26.979Z,6.60
2019-02-16T10:10:46.327Z,6.70
2019-02-16T10:14:02.257Z,6.80
2019-02-16T10:16:56.036Z,7.00
2019-02-16T10:20:02.255Z,7.10
2019-02-16T10:23:11.722Z,7.20
2019-02-16T10:26:08.591Z,7.40
2019-02-16T10:29:15.909Z,7.50
2019-02-16T10:32:21.435Z,7.60
2019-02-16T10:35:26.191Z,7.80
2019-02-16T10:38:32.284Z,8.00
2019-02-16T10:41:38.849Z,8.10
2019-02-16T10:44:48.907Z,8.30
2019-02-16T10:47:50.567Z,8.40
2019-02-16T10:50:45.463Z,8.60
2019-02-16T10:53:55.429Z,8.70
2019-02-16T10:57:08.289Z,8.80
2019-02-16T11:00:11.779Z,8.90
2019-02-16T11:03:17.478Z,9.10
2019-02-16T11:06:36.451Z,9.20
2019-02-16T11:09:55.795Z,9.30
2019-02-16T11:13:12.273Z,9.40
2019-02-16T11:16:12.284Z,9.50
2019-02-16T11:19:16.600Z,9.70
2019-02-16T11:22:10.261Z,9.80
2019-02-16T11:25:29.333Z,9.90
2019-02-16T11:28:32.622Z,10.00
2019-02-16T11:31:38.788Z,10.20
2019-02-16T11:34:48.782Z,10.30
2019-02-16T11:37:58.040Z,10.40
2019-02-16T11:41:05.280Z,10.40
2019-02-16T11:44:25.727Z,10.60
2019-02-16T11:47:38.469Z,10.70
2019-02-16T11:50:45.633Z,10.90
2019-02-16T11:53:52.506Z,11.00
2019-02-16T11:56:50.197Z,11.20
2019-02-16T12:00:00.236Z,11.30
2019-02-16T12:03:06.007Z,11.40
2019-02-16T12:06:12.013Z,11.50
2019-02-16T12:09:16.837Z,11.70
2019-02-16T12:12:22.726Z,11.80
2019-02-16T12:15:35.685Z,11.90
2019-02-16T12:18:37.111Z,12.00
2019-02-16T12:21:52.579Z,12.20
2019-02-16T12:25:15.215Z,12.30
2019-02-16T12:28:21.585Z,12.40
2019-02-16T12:31:24.059Z,12.60
2019-02-16T12:34:31.125Z,12.60
2019-02-16T12:37:36.713Z,12.70
2019-02-16T12:40:49.307Z,12.70
2019-02-16T12:43:59.717Z,12.90
2019-02-16T12:47:19.438Z,12.90
2019-02-16T12:50:29.006Z,13.00
2019-02-16T12:53:39.343Z,13.00
2019-02-16T12:56:42.079Z,13.00
2019-02-16T12:59:37.379Z,13.10
2019-02-16T13:02:53.324Z,13.30
2019-02-16T13:06:12.373Z,13.30
2019-02-16T13:09:06.709Z,13.40
2019-02-16T13:12:15.197Z,13.30
2019-02-16T13:15:13.130Z,13.30
2019-02-16T13:18:29.692Z,13.30
2019-02-16T13:21:42.739Z,13.40
2019-02-16T13:25:08.050Z,13.40
2019-02-16T13:28:12.492Z,13.40
2019-02-16T13:31:14.260Z,13.30
2019-02-16T13:34:27.163Z,13.30
2019-02-16T13:37:40.058Z,13.30
2019-02-16T13:40:49.050Z,13.30
2019-02-16T13:43:59.198Z,13.10
2019-02-16T13:46:55.798Z,13.10
2019-02-16T13:50:01.746Z,12.90
2019-02-16T13:53:08.679Z,12.80
2019-02-16T13:56:12.233Z,12.70
2019-02-16T13:59:08.716Z,12.70
2019-02-16T14:02:21.219Z,12.70
2019-02-16T14:05:30.266Z,12.60
2019-02-16T14:08:40.134Z,12.50
2019-02-16T14:11:39.062Z,12.60
2019-02-16T14:14:33.990Z,12.70
2019-02-16T14:17:30.717Z,12.80
2019-02-16T14:20:18.544Z,12.80
2019-02-16T14:23:06.595Z,12.80
2019-02-16T14:25:54.160Z,12.80
2019-02-16T14:28:41.817Z,12.80
2019-02-16T14:31:29.892Z,12.80
2019-02-16T14:34:18.065Z,12.80
2019-02-16T14:37:09.261Z,12.80
2019-02-16T14:39:57.214Z,12.70
2019-02-16T14:42:45.381Z,12.80
2019-02-16T14:45:35.925Z,12.70
2019-02-16T14:48:25.601Z,12.60
2019-02-16T14:51:14.127Z,12.70
2019-02-16T14:54:01.879Z,12.60
2019-02-16T14:56:49.800Z,12.60
2019-02-16T14:59:37.837Z,12.60
2019-02-16T15:02:25.619Z,12.60
2019-02-16T15:05:13.387Z,12.60
2019-02-16T15:08:01.278Z,12.60
2019-02-16T15:10:50.158Z,12.70
2019-02-16T15:13:38.057Z,12.80
2019-02-16T15:16:25.773Z,12.80
2019-02-16T15:19:13.537Z,12.80
2019-02-16T15:22:01.030Z,12.70
2019-02-16T15:24:49.189Z,12.60
2019-02-16T15:27:37.676Z,12.60
2019-02-16T15:30:25.727Z,12.50
2019-02-16T15:33:13.971Z,12.40
2019-02-16T15:36:01.989Z,12.30
2019-02-16T15:38:50.071Z,12.20
2019-02-16T15:41:38.402Z,12.10
2019-02-16T15:44:26.134Z,12.10
2019-02-16T15:47:14.120Z,12.10
2019-02-16T15:50:01.973Z,12.00
2019-02-16T15:52:49.717Z,12.00
2019-02-16T15:55:37.297Z,12.00
2019-02-16T15:58:24.918Z,11.90
2019-02-16T16:01:13.141Z,11.90
2019-02-16T16:04:01.146Z,11.90
2019-02-16T16:06:48.666Z,11.90
2019-02-16T16:10:05.776Z,11.70
2019-02-16T16:13:11.727Z,11.40
2019-02-16T16:16:24.813Z,11.30
2019-02-16T16:19:17.901Z,11.10
2019-02-16T16:22:12.299Z,11.00
2019-02-16T16:25:26.760Z,11.00
2019-02-16T16:28:44.062Z,10.90
2019-02-16T16:32:00.521Z,10.70
2019-02-16T16:35:10.263Z,10.30
2019-02-16T16:38:15.778Z,10.20
2019-02-16T16:41:34.921Z,10.00
2019-02-16T16:44:39.735Z,9.70
2019-02-16T16:47:59.686Z,9.40
2019-02-16T16:51:05.613Z,9.20
2019-02-16T16:54:10.542Z,9.10
2019-02-16T16:57:13.900Z,8.80
2019-02-16T17:00:29.794Z,8.40
2019-02-16T17:03:34.926Z,8.00
2019-02-16T17:06:51.128Z,7.70
2019-02-16T17:10:13.323Z,7.50
2019-02-16T17:13:18.801Z,7.40
2019-02-16T17:16:25.613Z,7.20
2019-02-16T17:19:35.676Z,7.00
2019-02-16T17:22:45.898Z,6.80
2019-02-16T17:25:55.712Z,6.60
2019-02-16T17:29:00.897Z,6.50
2019-02-16T17:32:10.608Z,6.40
2019-02-16T17:35:08.873Z,6.30
2019-02-16T17:38:19.020Z,6.10
2019-02-16T17:41:44.513Z,6.10
2019-02-16T17:44:45.968Z,6.00
2019-02-16T17:48:11.240Z,5.80
2019-02-16T17:51:13.821Z,5.60
2019-02-16T17:54:27.229Z,5.50
2019-02-16T17:57:34.262Z,5.30
2019-02-16T18:00:50.333Z,5.20
2019-02-16T18:03:56.292Z,5.10
2019-02-16T18:07:03.382Z,5.00
2019-02-16T18:10:05.600Z,4.90
2019-02-16T18:13:01.233Z,4.80
2019-02-16T18:16:00.122Z,4.60
2019-02-16T18:18:54.822Z,4.60
2019-02-16T18:22:11.305Z,4.50
2019-02-16T18:25:18.128Z,4.40
2019-02-16T18:28:26.542Z,4.30
2019-02-16T18:31:33.546Z,4.30
2019-02-16T18:34:49.435Z,4.20
2019-02-16T18:37:48.003Z,4.10
2019-02-16T18:40:45.006Z,4.00
2019-02-16T18:43:52.004Z,3.90
2019-02-16T18:47:15.143Z,3.90
2019-02-16T18:50:19.244Z,3.70
2019-02-16T18:53:23.429Z,3.70
2019-02-16T18:56:25.540Z,3.50
2019-02-16T18:59:27.492Z,3.40
2019-02-16T19:02:24.845Z,3.30
2019-02-16T19:05:40.958Z,3.20
2019-02-16T19:08:51.225Z,3.10
2019-02-16T19:11:53.532Z,3.00
2019-02-16T19:14:59.560Z,2.90
2019-02-16T19:18:12.497Z,2.80
2019-02-16T19:21:13.399Z,2.70
2019-02-16T19:24:29.417Z,2.60
2019-02-16T19:27:25.818Z,2.50
2019-02-16T19:30:39.242Z,2.40
2019-02-16T19:33:49.923Z,2.40
2019-02-16T19:36:55.843Z,2.30
2019-02-16T19:39:53.350Z,2.20
2019-02-16T19:42:58.869Z,2.20
2019-02-16T19:45:55.469Z,2.10
2019-02-16T19:49:01.643Z,2.10
2019-02-16T19:52:09.064Z,2.00
2019-02-16T19:55:00.892Z,1.90
2019-02-16T19:58:16.940Z,1.90
2019-02-16T20:01:19.633Z,1.80
2019-02-16T20:04:30.724Z,1.80
2019-02-16T20:07:37.536Z,1.70
2019-02-16T20:10:43.225Z,1.70
2019-02-16T20:13:56.616Z,1.50
2019-02-16T20:17:02.570Z,1.50
2019-02-16T20:19:58.317Z,1.40
2019-02-16T20:23:05.262Z,1.30
2019-02-16T20:26:27.441Z,1.30
2019-02-16T20:29:20.482Z,1.30
2019-02-16T20:32:45.412Z,1.20
2019-02-16T20:35:45.535Z,1.20
2019-02-16T20:38:54.225Z,1.10
2019-02-16T20:41:52.043Z,1.10
2019-02-16T20:45:17.398Z,1.00
2019-02-16T20:48:16.435Z,1.00
2019-02-16T20:51:31.311Z,0.90
2019-02-16T20:54:24.158Z,0.90
2019-02-16T20:57:20.694Z,0.80
2019-02-16T21:00:30.575Z,0.70
2019-02-16T21:03:40.372Z,0.50
2019-02-16T21:06:47.516Z,0.40
2019-02-16T21:09:47.126Z,0.40
2019-02-16T21:12:58.172Z,0.30
2019-02-16T21:16:05.168Z,0.40
2019-02-16T21:19:03.685Z,0.40
2019-02-16T21:22:09.599Z,0.40
2019-02-16T21:25:06.845Z,0.40
2019-02-16T21:28:20.186Z,0.40
2019-02-16T21:31:37.419Z,0.40
2019-02-16T21:34:43.507Z,0.40
2019-02-16T21:38:08.063Z,0.40
2019-02-16T21:41:21.051Z,0.30
2019-02-16T21:44:14.778Z,0.30
2019-02-16T21:47:12.556Z,0.30
2019-02-16T21:50:28.474Z,0.20
2019-02-16T21:53:24.945Z,0.20
2019-02-16T21:56:38.001Z,0.10
2019-02-16T21:59:51.310Z,0.10
2019-02-16T22:02:48.651Z,0.10
2019-02-16T22:05:46.897Z,0.10
2019-02-16T22:08:52.965Z,0.10
2019-02-16T22:12:02.252Z,0.00
2019-02-16T22:14:49.993Z,0.00
2019-02-16T22:17:37.781Z,-0.10
2019-02-16T22:20:25.761Z,-0.20
2019-02-16T22:23:13.387Z,-0.20
2019-02-16T22:26:01.155Z,-0.20
2019-02-16T22:28:48.645Z,-0.30
2019-02-16T22:31:38.559Z,-0.30
2019-02-16T22:34:26.561Z,-0.30
2019-02-16T22:37:16.289Z,-0.30
2019-02-16T22:40:04.158Z,-0.30
2019-02-16T22:42:52.023Z,-0.30
2019-02-16T22:45:39.689Z,-0.30
2019-02-16T22:48:28.693Z,-0.30
2019-02-16T22:51:16.783Z,-0.40
2019-02-16T22:54:04.642Z,-0.50
2019-02-16T22:56:52.220Z,-0.50
2019-02-16T22:59:40.106Z,-0.60
2019-02-16T23:02:28.305Z,-0.50
2019-02-16T23:05:16.460Z,-0.50
2019-02-16T23:08:05.001Z,-0.60
2019-02-16T23:10:52.993Z,-0.60
2019-02-16T23:13:40.926Z,-0.60
2019-02-16T23:16:29.224Z,-0.60
2019-02-16T23:19:18.347Z,-0.60
2019-02-16T23:22:06.292Z,-0.70
2019-02-16T23:24:54.325Z,-0.70
2019-02-16T23:27:44.917Z,-0.70
2019-02-16T23:30:32.942Z,-0.70
2019-02-16T23:33:20.462Z,-0.70
2019-02-16T23:36:08.418Z,-0.80
2019-02-16T23:38:56.509Z,-0.80
2019-02-16T23:41:44.103Z,-0.90
2019-02-16T23:44:32.621Z,-0.90
2019-02-16T23:47:21.268Z,-0.90
2019-02-16T23:50:10.040Z,-1.00
2019-02-16T23:52:58.165Z,-1.10
2019-02-16T23:55:46.003Z,-1.10
2019-02-16T23:58:33.852Z,-1.10
